Time;durP1;ratioP1;P1;durP2;ratioP2;P2;SDS_P1;SDS_P2;PMS_P1;PMS_P2;Temp;Humidity;BMP_temperature;BMP_pressure;BME280_temperature;BME280_humidity;BME280_pressure;Samples;Min_cycle;Max_cycle;Signal;HPM_P1;HPM_P2
2021/05/24 00:00:08;;;;;;;;;;;;;;;17.10;50.75;100157.97;1771892;80;20183;-65
2021/05/24 00:02:36;;;;;;;;;;;;;;;17.11;50.80;100159.61;1774642;80;21724;-64
2021/05/24 00:05:04;;;;;;;;;;;;;;;17.10;50.85;100162.03;1773882;81;20171;-64
2021/05/24 00:07:32;;;;;;;;;;;;;;;17.10;50.93;100160.13;1774363;80;20191;-64
2021/05/24 00:10:01;;;;;;;;;;;;;;;17.10;51.00;100156.61;1769781;80;20172;-64
2021/05/24 00:12:28;;;;;;;;;;;;;;;17.10;51.05;100156.61;1771993;81;20178;-64
2021/05/24 00:14:58;;;;;;;;;;;;;;;17.11;51.11;100156.89;1769066;79;20187;-64
2021/05/24 00:17:26;;;;;;;;;;;;;;;17.11;51.04;100147.42;1773797;80;20183;-64
2021/05/24 00:19:55;;;;;;;;;;;;;;;17.10;51.15;100145.23;1737087;80;20179;-64
2021/05/24 00:22:21;;;;;;;;;;;;;;;17.09;51.16;100140.92;1775132;80;20147;-64
2021/05/24 00:24:49;;;;;;;;;;;;;;;17.09;51.36;100146.33;1771819;80;20275;-64
2021/05/24 00:27:17;;;;;;;;;;;;;;;17.11;51.43;100146.06;1769903;79;21067;-64
2021/05/24 00:29:43;;;;;;;;;;;;;;;17.08;51.51;100143.34;1775626;80;20265;-65
2021/05/24 00:32:12;;;;;;;;;;;;;;;17.10;51.59;100139.81;1774073;80;20160;-64
2021/05/24 00:34:40;;;;;;;;;;;;;;;17.13;51.53;100152.82;1772818;80;20239;-63
2021/05/24 00:37:07;;;;;;;;;;;;;;;17.16;51.55;100198.33;1775439;80;20200;-65
2021/05/24 00:39:35;;;;;;;;;;;;;;;17.22;51.79;100233.56;1772921;80;20989;-64
2021/05/24 00:42:02;;;;;;;;;;;;;;;17.22;51.62;100234.38;1771424;80;20652;-64
2021/05/24 00:44:29;;;;;;;;;;;;;;;17.21;50.88;100234.12;1773783;80;20231;-64
2021/05/24 00:46:56;;;;;;;;;;;;;;;17.19;50.67;100220.01;1773720;80;20198;-63
2021/05/24 00:49:26;;;;;;;;;;;;;;;17.16;50.84;100241.66;1774151;80;20159;-64
2021/05/24 00:51:54;;;;;;;;;;;;;;;17.14;51.05;100254.66;1775852;80;21090;-64
2021/05/24 00:54:22;;;;;;;;;;;;;;;17.14;51.33;100256.02;1788958;80;20167;-64
2021/05/24 00:56:49;;;;;;;;;;;;;;;17.15;51.69;100255.47;1786265;80;20179;-65
2021/05/24 00:59:16;;;;;;;;;;;;;;;17.15;51.77;100244.63;1783017;80;20202;-64
2021/05/24 01:01:43;;;;;;;;;;;;;;;17.13;52.04;100254.93;1789074;80;20163;-63
2021/05/24 01:04:11;;;;;;;;;;;;;;;17.13;52.48;100267.12;1789061;80;21052;-63
2021/05/24 01:06:38;;;;;;;;;;;;;;;17.10;52.94;100273.06;1788806;78;20151;-66
2021/05/24 01:09:05;;;;;;;;;;;;;;;17.03;53.98;100279.25;1789180;80;20171;-64
2021/05/24 01:11:32;;;;;;;;;;;;;;;16.97;55.68;100283.30;1789118;80;20159;-63
2021/05/24 01:14:03;;;;;;;;;;;;;;;16.94;55.92;100277.58;1786438;80;20139;-63
2021/05/24 01:16:31;;;;;;;;;;;;;;;16.86;56.62;100279.39;1786393;80;20178;-64
2021/05/24 01:18:58;;;;;;;;;;;;;;;16.82;57.58;100296.70;1788864;80;20218;-63
2021/05/24 01:21:25;;;;;;;;;;;;;;;16.78;58.21;100293.72;1789385;80;20171;-63
2021/05/24 01:23:51;;;;;;;;;;;;;;;16.75;58.80;100301.53;1789574;80;20202;-65
2021/05/24 01:26:20;;;;;;;;;;;;;;;16.72;59.39;100302.05;1788722;79;20147;-65
2021/05/24 01:28:48;;;;;;;;;;;;;;;16.64;59.39;100301.46;1789523;79;21116;-64
2021/05/24 01:31:14;;;;;;;;;;;;;;;16.56;59.84;100295.20;1789589;79;20171;-64
2021/05/24 01:33:41;;;;;;;;;;;;;;;16.49;60.19;100297.82;1783042;80;20139;-63
2021/05/24 01:36:09;;;;;;;;;;;;;;;16.45;60.72;100300.25;1789679;79;20175;-64
2021/05/24 01:38:38;;;;;;;;;;;;;;;16.39;60.98;100287.21;1789410;79;20215;-64
2021/05/24 01:41:05;;;;;;;;;;;;;;;16.30;61.28;100283.36;1789547;79;21047;-64
2021/05/24 01:43:32;;;;;;;;;;;;;;;16.25;61.76;100276.02;1785881;80;20226;-64
2021/05/24 01:45:59;;;;;;;;;;;;;;;16.20;62.00;100269.20;1789173;80;20187;-64
2021/05/24 01:48:25;;;;;;;;;;;;;;;16.17;62.63;100266.22;1723769;82;20223;-64
2021/05/24 01:50:53;;;;;;;;;;;;;;;16.14;62.86;100262.68;1749707;81;20177;-64
2021/05/24 01:53:20;;;;;;;;;;;;;;;16.08;62.88;100252.35;1749200;80;21104;-64
2021/05/24 01:55:48;;;;;;;;;;;;;;;16.01;62.89;100255.25;1748776;81;20184;-63
2021/05/24 01:58:15;;;;;;;;;;;;;;;15.98;63.46;100252.27;1749301;81;20521;-64
2021/05/24 02:00:42;;;;;;;;;;;;;;;15.96;63.69;100238.17;1749477;81;20549;-64
2021/05/24 02:03:08;;;;;;;;;;;;;;;15.92;64.11;100235.98;1749506;81;20176;-63
2021/05/24 02:05:36;;;;;;;;;;;;;;;15.91;64.20;100227.58;1749581;81;21118;-64
2021/05/24 02:08:02;;;;;;;;;;;;;;;15.90;64.21;100230.55;1749486;81;20160;-64
2021/05/24 02:10:32;;;;;;;;;;;;;;;15.87;64.28;100228.36;1749690;81;20184;-63
2021/05/24 02:12:59;;;;;;;;;;;;;;;15.84;64.52;100229.70;1745019;82;20231;-63
2021/05/24 02:15:29;;;;;;;;;;;;;;;15.86;65.16;100226.20;1749455;81;20232;-63
2021/05/24 02:17:55;;;;;;;;;;;;;;;15.89;65.45;100237.05;1748153;81;21754;-63
2021/05/24 02:20:24;;;;;;;;;;;;;;;15.92;65.62;100237.88;1750590;81;20156;-63
2021/05/24 02:22:52;;;;;;;;;;;;;;;15.93;65.72;100240.33;1759797;81;20613;-64
2021/05/24 02:25:18;;;;;;;;;;;;;;;15.90;65.69;100242.19;1750390;81;20208;-64
2021/05/24 02:27:45;;;;;;;;;;;;;;;15.88;66.28;100252.42;1724281;82;20197;-64
2021/05/24 02:30:14;;;;;;;;;;;;;;;15.88;66.42;100238.11;1749145;81;20180;-65
2021/05/24 02:32:42;;;;;;;;;;;;;;;15.84;66.55;100239.17;1749331;81;20608;-64
2021/05/24 02:35:10;;;;;;;;;;;;;;;15.83;66.47;100239.42;1749339;81;20177;-64
2021/05/24 02:37:37;;;;;;;;;;;;;;;15.82;66.69;100237.78;1782329;80;20143;-63
2021/05/24 02:40:06;;;;;;;;;;;;;;;15.79;66.79;100233.70;1780917;80;20176;-63
2021/05/24 02:42:33;;;;;;;;;;;;;;;15.80;67.01;100219.13;1781190;80;21028;-63
2021/05/24 02:45:01;;;;;;;;;;;;;;;15.81;67.29;100215.36;1781164;80;20164;-64
2021/05/24 02:47:28;;;;;;;;;;;;;;;15.81;67.62;100219.41;1781204;80;20837;-65
2021/05/24 02:49:55;;;;;;;;;;;;;;;15.77;67.59;100203.39;1780860;80;20163;-64
2021/05/24 02:52:22;;;;;;;;;;;;;;;15.69;67.39;100186.28;1778105;80;20179;-65
2021/05/24 02:54:49;;;;;;;;;;;;;;;15.46;67.52;100184.70;1763094;80;21663;-63
2021/05/24 02:57:16;;;;;;;;;;;;;;;15.24;68.03;100181.53;1784974;80;20235;-63
2021/05/24 02:59:43;;;;;;;;;;;;;;;15.04;68.35;100180.76;1785075;80;20163;-64
2021/05/24 03:02:14;;;;;;;;;;;;;;;14.92;69.01;100194.93;1784873;80;20567;-64
2021/05/24 03:04:39;;;;;;;;;;;;;;;14.92;69.66;100223.27;1785346;80;20191;-63
2021/05/24 03:07:07;;;;;;;;;;;;;;;14.97;69.81;100234.11;1784949;80;20179;-63
2021/05/24 03:09:34;;;;;;;;;;;;;;;14.97;69.56;100185.53;1785313;80;20179;-64
2021/05/24 03:12:03;;;;;;;;;;;;;;;14.92;70.16;100169.29;1788887;80;20139;-64
2021/05/24 03:14:30;;;;;;;;;;;;;;;14.86;70.45;100153.56;1785300;80;20175;-63
2021/05/24 03:16:57;;;;;;;;;;;;;;;14.78;70.79;100134.59;1784985;80;20578;-64
2021/05/24 03:19:24;;;;;;;;;;;;;;;14.67;71.07;100130.94;1785120;80;21105;-63
2021/05/24 03:21:52;;;;;;;;;;;;;;;14.61;71.79;100118.45;1780053;80;20186;-63
2021/05/24 03:24:19;;;;;;;;;;;;;;;14.50;72.23;100120.70;1784030;80;20194;-64
2021/05/24 03:26:46;;;;;;;;;;;;;;;14.42;72.75;100109.82;1784164;80;20616;-64
2021/05/24 03:29:13;;;;;;;;;;;;;;;14.39;73.10;100123.00;1785013;80;20159;-64
2021/05/24 03:31:40;;;;;;;;;;;;;;;14.35;73.33;100120.80;1784585;80;22536;-64
2021/05/24 03:34:07;;;;;;;;;;;;;;;14.31;73.85;100116.13;1784812;80;20167;-63
2021/05/24 03:36:33;;;;;;;;;;;;;;;14.25;74.11;100115.78;1784681;80;20401;-63
2021/05/24 03:39:00;;;;;;;;;;;;;;;14.19;74.61;100110.84;1784941;80;20147;-63
2021/05/24 03:41:27;;;;;;;;;;;;;;;14.15;74.86;100113.23;1784913;80;20164;-64
2021/05/24 03:43:54;;;;;;;;;;;;;;;14.20;75.07;100113.84;1784584;80;22246;-64
2021/05/24 03:46:20;;;;;;;;;;;;;;;14.24;74.94;100112.28;1784122;80;20513;-64
2021/05/24 03:48:47;;;;;;;;;;;;;;;14.18;75.09;100106.54;1784237;80;20148;-64
2021/05/24 03:51:15;;;;;;;;;;;;;;;14.12;75.07;100098.91;1762915;80;20135;-64
2021/05/24 03:53:41;;;;;;;;;;;;;;;14.10;75.26;100089.44;1784604;80;20219;-64
2021/05/24 03:56:08;;;;;;;;;;;;;;;14.12;75.15;100096.73;1782616;80;21092;-64
2021/05/24 03:58:35;;;;;;;;;;;;;;;14.15;75.01;100090.87;1776504;80;20179;-64
2021/05/24 04:01:01;;;;;;;;;;;;;;;14.14;74.89;100082.48;1776187;80;20199;-63
2021/05/24 04:03:28;;;;;;;;;;;;;;;14.16;75.03;100083.88;1776246;80;20406;-63
2021/05/24 04:06:00;;;;;;;;;;;;;;;14.19;74.71;100090.63;1777133;79;20135;-67
2021/05/24 04:08:28;;;;;;;;;;;;;;;14.16;74.64;100091.97;1775799;80;21806;-64
2021/05/24 04:10:57;;;;;;;;;;;;;;;14.12;74.83;100077.86;1776198;80;20565;-64
2021/05/24 04:13:22;;;;;;;;;;;;;;;14.08;74.95;100076.75;1775865;80;20560;-64
2021/05/24 04:15:51;;;;;;;;;;;;;;;14.06;75.10;100073.47;1776087;80;20156;-68
2021/05/24 04:18:19;;;;;;;;;;;;;;;14.05;75.31;100076.70;1777185;80;20160;-64
2021/05/24 04:20:47;;;;;;;;;;;;;;;14.13;75.33;100081.69;1777987;80;20565;-63
2021/05/24 04:23:15;;;;;;;;;;;;;;;14.17;75.30;100088.73;1775688;80;20139;-64
2021/05/24 04:25:42;;;;;;;;;;;;;;;14.17;75.33;100086.84;1776767;80;20573;-64
2021/05/24 04:28:09;;;;;;;;;;;;;;;14.11;75.56;100082.45;1776709;80;20160;-63
2021/05/24 04:30:35;;;;;;;;;;;;;;;14.06;75.87;100082.39;1776824;80;20159;-64
2021/05/24 04:33:02;;;;;;;;;;;;;;;14.05;75.94;100079.95;1773223;80;21101;-64
2021/05/24 04:35:29;;;;;;;;;;;;;;;14.10;76.23;100086.73;1776180;80;20179;-63
2021/05/24 04:37:55;;;;;;;;;;;;;;;14.10;76.22;100099.67;1776233;80;20521;-64
2021/05/24 04:40:22;;;;;;;;;;;;;;;14.12;76.12;100089.98;1776630;80;20139;-64
2021/05/24 04:42:49;;;;;;;;;;;;;;;14.12;76.20;100098.08;1776163;80;20187;-64
2021/05/24 04:45:17;;;;;;;;;;;;;;;14.08;76.29;100096.96;1776515;80;21863;-64
2021/05/24 04:47:43;;;;;;;;;;;;;;;14.08;76.36;100100.47;1776568;80;20140;-65
2021/05/24 04:50:11;;;;;;;;;;;;;;;14.13;76.40;100099.72;1773608;80;20184;-64
2021/05/24 04:52:38;;;;;;;;;;;;;;;14.18;76.23;100106.54;1776018;80;20600;-64
2021/05/24 04:55:06;;;;;;;;;;;;;;;14.23;76.14;100104.45;1779877;80;20179;-64
2021/05/24 04:57:33;;;;;;;;;;;;;;;14.21;76.02;100097.95;1777294;80;21831;-65
2021/05/24 04:59:59;;;;;;;;;;;;;;;14.13;76.17;100097.86;1780361;80;20461;-64
2021/05/24 05:02:28;;;;;;;;;;;;;;;14.02;76.28;100088.79;1780739;80;20167;-64
2021/05/24 05:04:56;;;;;;;;;;;;;;;13.90;76.70;100081.34;1780609;80;20156;-64
2021/05/24 05:07:22;;;;;;;;;;;;;;;13.87;76.89;100085.05;1780762;80;20124;-66
2021/05/24 05:09:49;;;;;;;;;;;;;;;13.85;76.92;100086.64;1780907;80;21632;-63
2021/05/24 05:12:16;;;;;;;;;;;;;;;13.83;77.02;100079.35;1780737;80;20160;-64
2021/05/24 05:14:44;;;;;;;;;;;;;;;13.78;77.12;100068.48;1778069;80;20208;-64
2021/05/24 05:17:10;;;;;;;;;;;;;;;13.77;77.24;100079.80;1780440;80;20167;-64
2021/05/24 05:19:37;;;;;;;;;;;;;;;13.80;77.32;100081.20;1780612;80;20539;-64
2021/05/24 05:22:05;;;;;;;;;;;;;;;13.83;76.96;100078.00;1780606;80;21211;-64
2021/05/24 05:24:32;;;;;;;;;;;;;;;13.83;77.08;100080.70;1780553;80;20536;-64
2021/05/24 05:26:59;;;;;;;;;;;;;;;13.86;77.08;100084.78;1781319;80;20179;-63
2021/05/24 05:29:26;;;;;;;;;;;;;;;13.94;77.07;100092.44;1748810;82;20531;-65
2021/05/24 05:31:53;;;;;;;;;;;;;;;13.97;76.68;100100.86;1748719;81;20233;-64
2021/05/24 05:34:20;;;;;;;;;;;;;;;14.00;76.53;100108.45;1748922;82;21036;-64
2021/05/24 05:36:46;;;;;;;;;;;;;;;14.00;76.17;100114.34;1748686;82;20204;-65
2021/05/24 05:39:13;;;;;;;;;;;;;;;13.95;76.21;100107.01;1748599;82;20145;-66
2021/05/24 05:41:40;;;;;;;;;;;;;;;13.92;75.94;100098.07;1748061;82;20256;-64
2021/05/24 05:44:06;;;;;;;;;;;;;;;13.91;76.01;100095.63;1748907;81;20181;-65
2021/05/24 05:46:34;;;;;;;;;;;;;;;13.91;75.85;100101.82;1748502;81;21076;-64
2021/05/24 05:49:00;;;;;;;;;;;;;;;13.86;75.42;100092.88;1746769;81;20212;-65
2021/05/24 05:51:27;;;;;;;;;;;;;;;13.76;75.78;100091.63;1748498;81;20225;-65
2021/05/24 05:53:59;;;;;;;;;;;;;;;13.67;75.84;100088.53;1749923;80;20219;-65
2021/05/24 05:56:23;;;;;;;;;;;;;;;13.63;75.90;100092.80;1725855;81;20172;-65
2021/05/24 05:58:50;;;;;;;;;;;;;;;13.63;75.97;100091.96;1753301;81;21025;-64
2021/05/24 06:01:17;;;;;;;;;;;;;;;13.65;75.98;100094.70;1754526;81;20180;-64
2021/05/24 06:03:44;;;;;;;;;;;;;;;13.67;75.73;100089.88;1754606;81;20160;-64
2021/05/24 06:06:12;;;;;;;;;;;;;;;13.66;75.90;100088.78;1749862;81;20216;-64
2021/05/24 06:08:39;;;;;;;;;;;;;;;13.72;75.90;100084.29;1751348;81;20180;-67
2021/05/24 06:11:06;;;;;;;;;;;;;;;13.78;75.71;100081.95;1754580;81;21080;-65
2021/05/24 06:13:33;;;;;;;;;;;;;;;13.82;75.73;100070.98;1754642;81;20207;-64
2021/05/24 06:16:00;;;;;;;;;;;;;;;13.91;75.83;100070.03;1720006;83;20580;-64
2021/05/24 06:18:26;;;;;;;;;;;;;;;14.01;75.89;100077.72;1782862;80;20183;-64
2021/05/24 06:20:53;;;;;;;;;;;;;;;14.13;75.44;100096.51;1786529;80;20159;-64
2021/05/24 06:23:19;;;;;;;;;;;;;;;14.20;75.24;100104.40;1785441;80;21070;-65
2021/05/24 06:25:47;;;;;;;;;;;;;;;14.27;74.93;100115.83;1786276;80;20552;-64
2021/05/24 06:28:14;;;;;;;;;;;;;;;14.32;74.87;100121.27;1786533;80;20167;-64
2021/05/24 06:30:40;;;;;;;;;;;;;;;14.33;74.60;100118.06;1786503;80;20191;-65
2021/05/24 06:33:07;;;;;;;;;;;;;;;14.27;74.27;100120.41;1786522;80;20167;-64
2021/05/24 06:35:34;;;;;;;;;;;;;;;14.26;74.39;100120.12;1790013;80;21094;-64
2021/05/24 06:38:01;;;;;;;;;;;;;;;14.29;74.30;100116.92;1786410;80;20207;-64
2021/05/24 06:40:28;;;;;;;;;;;;;;;14.31;73.95;100093.21;1782693;80;20199;-65
2021/05/24 06:42:55;;;;;;;;;;;;;;;14.25;73.97;100078.88;1785001;80;20232;-63
2021/05/24 06:45:22;;;;;;;;;;;;;;;14.14;74.46;100086.53;1785988;80;20139;-65
2021/05/24 06:47:49;;;;;;;;;;;;;;;14.03;75.03;100070.77;1783045;80;21710;-64
2021/05/24 06:50:16;;;;;;;;;;;;;;;13.97;75.39;100071.22;1782317;80;20220;-64
2021/05/24 06:52:42;;;;;;;;;;;;;;;13.97;75.75;100085.20;1786079;80;20163;-64
2021/05/24 06:55:10;;;;;;;;;;;;;;;14.03;76.01;100089.62;1788638;80;20135;-64
2021/05/24 06:57:37;;;;;;;;;;;;;;;14.13;75.79;100103.25;1791517;80;20556;-66
2021/05/24 07:00:10;;;;;;;;;;;;;;;14.18;75.59;100095.22;1789671;80;21085;-64
2021/05/24 07:02:36;;;;;;;;;;;;;;;14.17;75.44;100102.20;1778057;80;20175;-64
2021/05/24 07:05:03;;;;;;;;;;;;;;;14.16;75.48;100096.52;1755092;80;20555;-64
2021/05/24 07:07:29;;;;;;;;;;;;;;;14.13;75.32;100095.16;1755004;80;20525;-64
2021/05/24 07:09:57;;;;;;;;;;;;;;;14.08;75.46;100092.92;1780994;80;20171;-64
2021/05/24 07:12:24;;;;;;;;;;;;;;;13.99;75.27;100082.55;1781102;80;21071;-64
2021/05/24 07:14:53;;;;;;;;;;;;;;;13.91;75.59;100080.27;1781066;80;20191;-66
2021/05/24 07:17:19;;;;;;;;;;;;;;;13.83;76.05;100079.35;1780489;80;20175;-64
2021/05/24 07:19:47;;;;;;;;;;;;;;;13.73;76.45;100085.93;1780700;80;20152;-64
2021/05/24 07:22:14;;;;;;;;;;;;;;;13.66;76.60;100080.70;1781002;80;20569;-63
2021/05/24 07:24:40;;;;;;;;;;;;;;;13.57;77.11;100074.91;1780895;80;21033;-66
2021/05/24 07:27:07;;;;;;;;;;;;;;;13.51;77.57;100088.55;1780957;80;20159;-64
2021/05/24 07:29:34;;;;;;;;;;;;;;;13.45;77.99;100094.37;1777312;80;20180;-65
2021/05/24 07:32:01;;;;;;;;;;;;;;;13.46;78.19;100094.13;1780903;80;20163;-65
2021/05/24 07:34:27;;;;;;;;;;;;;;;13.46;78.31;100086.59;1780843;80;20231;-63
2021/05/24 07:36:56;;;;;;;;;;;;;;;13.37;78.68;100092.06;1780956;80;22171;-63
2021/05/24 07:39:23;;;;;;;;;;;;;;;13.29;79.14;100079.29;1777052;80;20155;-64
2021/05/24 07:41:49;;;;;;;;;;;;;;;13.25;79.52;100068.71;1780545;80;20235;-62
2021/05/24 07:44:16;;;;;;;;;;;;;;;13.22;79.96;100064.33;1780387;80;20195;-64
2021/05/24 07:46:42;;;;;;;;;;;;;;;13.23;80.19;100074.05;1779488;80;20203;-64
2021/05/24 07:49:09;;;;;;;;;;;;;;;13.23;80.14;100082.92;1780692;80;21148;-64
2021/05/24 07:51:36;;;;;;;;;;;;;;;13.30;80.23;100082.78;1780753;80;20230;-64
2021/05/24 07:54:04;;;;;;;;;;;;;;;13.37;80.27;100071.37;1780360;80;20227;-64
2021/05/24 07:56:30;;;;;;;;;;;;;;;13.46;79.94;100071.78;1773705;80;20577;-65
2021/05/24 07:58:57;;;;;;;;;;;;;;;13.48;79.70;100083.91;1776279;80;20124;-67
2021/05/24 08:01:25;;;;;;;;;;;;;;;13.54;79.70;100079.44;1776230;80;21051;-67
2021/05/24 08:03:51;;;;;;;;;;;;;;;13.60;79.48;100081.69;1776358;80;20160;-64
2021/05/24 08:06:18;;;;;;;;;;;;;;;13.66;79.31;100085.58;1776441;79;20179;-64
2021/05/24 08:08:46;;;;;;;;;;;;;;;13.69;78.82;100082.09;1776247;80;20123;-64
2021/05/24 08:11:15;;;;;;;;;;;;;;;13.68;78.73;100083.98;1776234;80;20211;-65
2021/05/24 08:13:42;;;;;;;;;;;;;;;13.69;78.75;100085.59;1776185;80;21081;-64
2021/05/24 08:16:12;;;;;;;;;;;;;;;13.72;78.56;100085.64;1778221;80;20211;-66
2021/05/24 08:18:37;;;;;;;;;;;;;;;13.73;78.49;100083.23;1776703;79;20196;-65
2021/05/24 08:21:05;;;;;;;;;;;;;;;13.76;78.52;100087.59;1777001;80;20582;-64
2021/05/24 08:23:32;;;;;;;;;;;;;;;13.81;78.34;100090.92;1775800;80;20187;-65
2021/05/24 08:26:01;;;;;;;;;;;;;;;13.84;78.30;100089.08;1776509;80;20682;-64
2021/05/24 08:28:28;;;;;;;;;;;;;;;13.91;78.08;100096.97;1775706;80;20223;-65
2021/05/24 08:30:55;;;;;;;;;;;;;;;13.96;77.67;100100.56;1776413;80;20187;-64
2021/05/24 08:33:22;;;;;;;;;;;;;;;13.94;77.65;100108.09;1776715;80;20556;-64
2021/05/24 08:35:49;;;;;;;;;;;;;;;13.95;77.39;100100.27;1776737;80;20164;-65
2021/05/24 08:38:16;;;;;;;;;;;;;;;13.90;77.45;100108.80;1776239;80;21085;-64
2021/05/24 08:40:43;;;;;;;;;;;;;;;13.93;77.91;100109.69;1776958;80;20123;-64
2021/05/24 08:43:10;;;;;;;;;;;;;;;14.04;78.02;100111.99;1776674;80;20136;-65
2021/05/24 08:45:38;;;;;;;;;;;;;;;14.12;77.75;100112.90;1777105;80;20750;-65
2021/05/24 08:48:08;;;;;;;;;;;;;;;14.18;77.76;100118.13;1777118;80;20155;-65
2021/05/24 08:50:36;;;;;;;;;;;;;;;14.28;77.60;100113.42;1774163;80;21155;-65
2021/05/24 08:53:05;;;;;;;;;;;;;;;14.35;77.38;100115.41;1742993;82;20250;-65
2021/05/24 08:55:32;;;;;;;;;;;;;;;14.39;77.09;100125.70;1736273;81;20249;-65
2021/05/24 08:57:59;;;;;;;;;;;;;;;14.47;77.26;100115.80;1733182;82;20217;-66
2021/05/24 09:00:26;;;;;;;;;;;;;;;14.57;77.11;100120.53;1737119;82;20142;-65
2021/05/24 09:02:54;;;;;;;;;;;;;;;14.64;76.75;100121.99;1735497;82;21108;-64
2021/05/24 09:05:23;;;;;;;;;;;;;;;14.68;76.46;100127.72;1736206;82;20210;-64
2021/05/24 09:07:51;;;;;;;;;;;;;;;14.73;76.26;100119.67;1744416;82;20700;-64
2021/05/24 09:10:21;;;;;;;;;;;;;;;14.75;75.88;100135.61;1744613;82;20185;-65
2021/05/24 09:12:48;;;;;;;;;;;;;;;14.77;75.72;100134.30;1784849;80;20151;-65
2021/05/24 09:15:16;;;;;;;;;;;;;;;14.74;75.20;100128.58;1784420;80;21103;-65
2021/05/24 09:17:45;;;;;;;;;;;;;;;14.65;74.75;100133.08;1784655;80;20171;-65
2021/05/24 09:20:17;;;;;;;;;;;;;;;14.59;75.15;100138.61;1785080;80;20195;-65
2021/05/24 09:22:44;;;;;;;;;;;;;;;14.59;75.26;100132.70;1776344;80;20239;-64
2021/05/24 09:25:12;;;;;;;;;;;;;;;14.56;75.02;100138.61;1783893;80;20249;-64
2021/05/24 09:27:40;;;;;;;;;;;;;;;14.49;75.20;100150.11;1784912;80;21791;-65
2021/05/24 09:30:08;;;;;;;;;;;;;;;14.47;75.46;100149.52;1783794;80;20214;-65
2021/05/24 09:32:36;;;;;;;;;;;;;;;14.46;75.38;100158.16;1726746;82;20561;-65
2021/05/24 09:35:04;;;;;;;;;;;;;;;14.44;75.38;100162.16;1718325;83;20236;-65
2021/05/24 09:37:35;;;;;;;;;;;;;;;14.40;75.23;100161.85;1744704;82;20166;-65
2021/05/24 09:40:21;;;;;;;;;;;;;;;14.33;74.88;100163.36;1744022;82;21100;-65
2021/05/24 09:42:47;;;;;;;;;;;;;;;14.18;75.05;100163.95;1744361;82;20185;-65
2021/05/24 09:45:18;;;;;;;;;;;;;;;14.07;75.44;100169.44;1784927;80;20139;-65
2021/05/24 09:47:45;;;;;;;;;;;;;;;14.03;75.60;100174.52;1784721;80;20147;-64
2021/05/24 09:50:15;;;;;;;;;;;;;;;13.99;75.87;100172.83;1784677;80;20175;-65
2021/05/24 09:52:42;;;;;;;;;;;;;;;13.94;75.93;100178.66;1785158;80;21041;-65
2021/05/24 09:55:20;;;;;;;;;;;;;;;13.92;76.11;100161.94;1782934;80;20131;-66
2021/05/24 09:57:53;;;;;;;;;;;;;;;13.84;75.85;100166.67;1778055;80;20163;-64
2021/05/24 10:00:24;;;;;;;;;;;;;;;13.64;76.24;100174.41;1781380;80;20186;-65
2021/05/24 10:02:52;;;;;;;;;;;;;;;13.50;76.99;100165.83;1785017;80;20140;-66
2021/05/24 10:05:19;;;;;;;;;;;;;;;13.45;77.10;100165.72;1781637;80;21871;-66
2021/05/24 10:07:47;;;;;;;;;;;;;;;13.42;77.27;100182.37;1784919;79;20135;-65
2021/05/24 10:10:14;;;;;;;;;;;;;;;13.38;77.47;100169.90;1781095;80;20178;-65
2021/05/24 10:12:41;;;;;;;;;;;;;;;13.38;77.79;100176.63;1755071;80;20577;-66
2021/05/24 10:15:09;;;;;;;;;;;;;;;13.37;77.80;100183.61;1785050;80;20568;-66
2021/05/24 10:17:42;;;;;;;;;;;;;;;13.35;77.71;100187.89;1784555;80;21106;-65
2021/05/24 10:20:07;;;;;;;;;;;;;;;13.36;77.83;100173.38;1781766;80;20179;-66
2021/05/24 10:22:34;;;;;;;;;;;;;;;13.39;77.53;100185.00;1755117;80;20139;-65
2021/05/24 10:25:01;;;;;;;;;;;;;;;13.40;77.62;100183.95;1784729;80;20191;-65
2021/05/24 10:27:28;;;;;;;;;;;;;;;13.40;77.48;100195.27;1785107;80;20147;-65
2021/05/24 10:29:55;;;;;;;;;;;;;;;13.43;77.57;100209.59;1780458;80;21038;-66
2021/05/24 10:32:22;;;;;;;;;;;;;;;13.42;77.47;100197.17;1779916;80;20195;-65
2021/05/24 10:34:49;;;;;;;;;;;;;;;13.39;77.17;100203.05;1785046;80;20392;-66
2021/05/24 10:37:20;;;;;;;;;;;;;;;13.38;77.51;100215.67;1784257;80;20167;-66
2021/05/24 10:39:58;;;;;;;;;;;;;;;13.41;77.70;100219.77;1784886;80;20552;-68
2021/05/24 10:42:42;;;;;;;;;;;;;;;13.48;77.52;100228.52;1784732;80;21286;-65
2021/05/24 10:45:23;;;;;;;;;;;;;;;13.55;77.50;100232.42;1784489;80;20155;-65
2021/05/24 10:47:54;;;;;;;;;;;;;;;13.62;77.34;100221.78;1779810;80;20583;-66
2021/05/24 10:50:21;;;;;;;;;;;;;;;13.69;77.25;100204.11;1784982;80;20334;-68
2021/05/24 10:52:55;;;;;;;;;;;;;;;13.70;76.72;100202.25;1785079;80;20140;-66
2021/05/24 10:55:29;;;;;;;;;;;;;;;13.66;76.73;100213.52;1782173;80;20571;-66
2021/05/24 10:58:03;;;;;;;;;;;;;;;13.58;76.65;100235.98;1784339;80;20195;-65
2021/05/24 11:01:01;;;;;;;;;;;;;;;13.51;76.77;100244.19;1780409;80;20182;-65
2021/05/24 11:03:28;;;;;;;;;;;;;;;13.45;76.92;100245.97;1782428;80;20140;-66
2021/05/24 11:06:12;;;;;;;;;;;;;;;13.43;77.32;100241.36;1785032;80;20580;-66
2021/05/24 11:08:42;;;;;;;;;;;;;;;13.41;77.22;100256.11;1784749;80;20171;-65
2021/05/24 11:11:28;;;;;;;;;;;;;;;13.38;77.05;100245.28;1784555;80;20244;-66
2021/05/24 11:14:08;;;;;;;;;;;;;;;13.30;77.14;100235.69;1785025;80;20597;-65
2021/05/24 11:16:36;;;;;;;;;;;;;;;13.26;77.24;100249.88;1783543;80;20183;-64
2021/05/24 11:19:10;;;;;;;;;;;;;;;13.28;77.21;100250.44;1780194;80;20199;-65
2021/05/24 11:21:39;;;;;;;;;;;;;;;13.30;77.09;100251.84;1784810;80;22811;-65
2021/05/24 11:24:22;;;;;;;;;;;;;;;13.30;77.30;100259.11;1784681;80;20555;-66
2021/05/24 11:26:37;;;;;;;;;;;;;;;13.32;77.55;100259.68;1782500;80;20497;-65
2021/05/24 11:29:09;;;;;;;;;;;;;;;13.36;77.57;100274.33;1785014;80;20572;-66
2021/05/24 11:31:40;;;;;;;;;;;;;;;13.41;77.91;100260.98;1767322;80;20227;-65
2021/05/24 11:34:11;;;;;;;;;;;;;;;13.53;77.26;100250.68;1776945;80;22226;-66
2021/05/24 11:36:42;;;;;;;;;;;;;;;13.60;76.91;100266.17;1773606;80;20139;-65
2021/05/24 11:39:33;;;;;;;;;;;;;;;13.62;76.38;100270.80;1777044;80;20124;-65
2021/05/24 11:42:05;;;;;;;;;;;;;;;13.59;76.13;100286.91;1776886;80;20208;-64
2021/05/24 11:44:40;;;;;;;;;;;;;;;13.60;75.86;100273.74;1773011;80;20231;-65
2021/05/24 11:47:04;;;;;;;;;;;;;;;13.59;75.66;100288.26;1775888;79;21331;-66
2021/05/24 11:49:36;;;;;;;;;;;;;;;13.61;75.76;100257.84;1776995;80;20188;-65
2021/05/24 11:52:05;;;;;;;;;;;;;;;13.61;75.57;100297.44;1774224;80;20521;-64
2021/05/24 11:54:31;;;;;;;;;;;;;;;13.56;75.17;100277.13;1776923;80;20167;-65
2021/05/24 11:57:00;;;;;;;;;;;;;;;13.49;74.73;100308.25;1776774;80;20264;-65
2021/05/24 11:59:28;;;;;;;;;;;;;;;13.46;75.05;100303.35;1777227;80;21029;-65
2021/05/24 12:01:56;;;;;;;;;;;;;;;13.47;74.86;100310.35;1776570;80;20214;-66
2021/05/24 12:04:25;;;;;;;;;;;;;;;13.46;75.08;100288.55;1776944;80;20187;-65
2021/05/24 12:06:55;;;;;;;;;;;;;;;13.47;75.14;100293.69;1776861;80;20199;-64
2021/05/24 12:09:44;;;;;;;;;;;;;;;13.52;74.75;100265.23;1776698;80;20215;-66
2021/05/24 12:12:12;;;;;;;;;;;;;;;13.47;74.40;100328.69;1776984;80;21639;-66
2021/05/24 12:14:45;;;;;;;;;;;;;;;13.47;74.97;100343.50;1776732;80;20179;-67
2021/05/24 12:17:15;;;;;;;;;;;;;;;13.53;74.87;100336.35;1776882;80;20590;-65
2021/05/24 12:19:43;;;;;;;;;;;;;;;13.57;74.16;100349.61;1776919;80;20168;-65
2021/05/24 12:22:12;;;;;;;;;;;;;;;13.58;74.20;100341.83;1773594;80;20525;-66
2021/05/24 12:24:46;;;;;;;;;;;;;;;13.56;74.08;100349.34;1777240;80;21666;-65
2021/05/24 12:27:15;;;;;;;;;;;;;;;13.55;74.17;100357.12;1776879;80;20135;-65
2021/05/24 12:29:54;;;;;;;;;;;;;;;13.57;73.95;100347.45;1777086;80;20513;-66
2021/05/24 12:32:35;;;;;;;;;;;;;;;13.62;74.14;100358.34;1758270;80;20236;-66
2021/05/24 12:35:10;;;;;;;;;;;;;;;13.69;73.71;100350.92;1776291;80;20203;-66
2021/05/24 12:37:38;;;;;;;;;;;;;;;13.76;73.73;100340.83;1776241;80;21676;-64
2021/05/24 12:40:09;;;;;;;;;;;;;;;13.78;72.66;100347.32;1773698;80;20183;-65